createdAt,value
2017-11-29T00:01:56.535Z,2.10
2017-11-29T00:04:23.992Z,2.00
2017-11-29T00:06:51.415Z,2.00
2017-11-29T00:09:18.822Z,1.90
2017-11-29T00:11:46.339Z,1.90
2017-11-29T00:14:14.548Z,1.80
2017-11-29T00:16:41.972Z,1.80
2017-11-29T00:19:09.400Z,1.80
2017-11-29T00:21:36.844Z,1.80
2017-11-29T00:24:04.311Z,1.80
2017-11-29T00:26:31.739Z,1.80
2017-11-29T00:28:59.171Z,1.80
2017-11-29T00:31:26.606Z,1.90
2017-11-29T00:33:54.024Z,1.90
2017-11-29T00:36:21.442Z,1.80
2017-11-29T00:38:48.972Z,1.90
2017-11-29T00:41:16.387Z,1.80
2017-11-29T00:43:44.606Z,1.90
2017-11-29T00:46:12.079Z,1.90
2017-11-29T00:48:39.540Z,1.90
2017-11-29T00:51:06.959Z,2.00
2017-11-29T00:53:35.151Z,2.00
2017-11-29T00:56:02.575Z,2.00
2017-11-29T00:58:29.999Z,2.10
2017-11-29T01:00:57.418Z,2.10
2017-11-29T01:03:25.615Z,2.30
2017-11-29T01:05:53.045Z,2.30
2017-11-29T01:08:21.238Z,2.20
2017-11-29T01:10:49.427Z,2.20
2017-11-29T01:13:16.855Z,2.20
2017-11-29T01:15:44.278Z,2.20
2017-11-29T01:18:11.729Z,2.10
2017-11-29T01:20:39.163Z,2.10
2017-11-29T01:23:06.590Z,2.00
2017-11-29T01:25:35.519Z,1.80
2017-11-29T01:28:02.933Z,1.80
2017-11-29T01:30:30.367Z,1.70
2017-11-29T01:32:57.837Z,1.70
2017-11-29T01:35:25.247Z,1.70
2017-11-29T01:37:53.440Z,1.60
2017-11-29T01:40:20.910Z,1.60
2017-11-29T01:42:49.113Z,1.60
2017-11-29T01:45:16.572Z,1.50
2017-11-29T01:47:44.002Z,1.50
2017-11-29T01:50:11.582Z,1.50
2017-11-29T01:52:38.995Z,1.40
2017-11-29T01:55:06.418Z,1.40
2017-11-29T01:57:33.892Z,1.30
2017-11-29T02:00:01.321Z,1.30
2017-11-29T02:02:28.760Z,1.30
2017-11-29T02:04:56.970Z,1.40
2017-11-29T02:07:24.387Z,1.40
2017-11-29T02:09:52.610Z,1.40
2017-11-29T02:12:20.076Z,1.40
2017-11-29T02:14:47.510Z,1.40
2017-11-29T02:17:15.000Z,1.30
2017-11-29T02:19:42.455Z,1.30
2017-11-29T02:22:09.919Z,1.40
2017-11-29T02:24:37.379Z,1.30
2017-11-29T02:27:04.843Z,1.30
2017-11-29T02:29:32.308Z,1.30
2017-11-29T02:31:59.732Z,1.30
2017-11-29T02:34:27.918Z,1.30
2017-11-29T02:36:55.405Z,1.30
2017-11-29T02:39:22.867Z,1.30
2017-11-29T02:42:02.402Z,1.30
2017-11-29T02:44:29.823Z,1.30
2017-11-29T02:46:58.010Z,1.20
2017-11-29T02:49:26.220Z,1.20
2017-11-29T02:51:53.638Z,1.30
2017-11-29T02:54:21.829Z,1.20
2017-11-29T02:56:49.259Z,1.20
2017-11-29T02:59:16.783Z,1.30
2017-11-29T03:01:44.210Z,1.30
2017-11-29T03:04:11.675Z,1.30
2017-11-29T03:06:39.108Z,1.30
2017-11-29T03:09:06.526Z,1.30
2017-11-29T03:11:33.963Z,1.30
2017-11-29T03:14:01.379Z,1.20
2017-11-29T03:16:28.902Z,1.20
2017-11-29T03:18:56.324Z,1.20
2017-11-29T03:21:24.542Z,1.20
2017-11-29T03:23:51.983Z,1.10
2017-11-29T03:26:19.475Z,1.10
2017-11-29T03:28:46.909Z,1.10
2017-11-29T03:31:14.332Z,1.20
2017-11-29T03:33:41.751Z,1.20
2017-11-29T03:36:09.170Z,1.30
2017-11-29T03:38:37.392Z,1.30
2017-11-29T03:41:04.819Z,1.40
2017-11-29T03:43:33.030Z,1.30
2017-11-29T03:46:00.500Z,1.30
2017-11-29T03:48:27.922Z,1.30
2017-11-29T03:50:55.343Z,1.30
2017-11-29T03:53:22.764Z,1.30
2017-11-29T03:55:50.240Z,1.30
2017-11-29T03:58:17.655Z,1.30
2017-11-29T04:00:45.849Z,1.20
2017-11-29T04:03:13.284Z,1.10
2017-11-29T04:05:41.514Z,1.20
2017-11-29T04:08:08.926Z,1.10
2017-11-29T04:10:37.129Z,1.10
2017-11-29T04:13:04.607Z,1.10
2017-11-29T04:15:32.037Z,1.10
2017-11-29T04:18:00.257Z,1.00
2017-11-29T04:20:27.674Z,1.00
2017-11-29T04:22:55.859Z,1.10
2017-11-29T04:25:23.414Z,1.00
2017-11-29T04:27:50.915Z,1.10
2017-11-29T04:30:18.355Z,1.20
2017-11-29T04:32:45.800Z,1.20
2017-11-29T04:35:13.976Z,1.40
2017-11-29T04:37:42.166Z,1.40
2017-11-29T04:40:09.656Z,1.40
2017-11-29T04:42:37.091Z,1.40
2017-11-29T04:45:04.583Z,1.50
2017-11-29T04:47:32.034Z,1.50
2017-11-29T04:49:59.515Z,1.50
2017-11-29T04:52:26.927Z,1.60
2017-11-29T04:54:54.424Z,1.60
2017-11-29T04:57:21.875Z,1.60
2017-11-29T04:59:49.304Z,1.70
2017-11-29T05:02:17.520Z,1.80
2017-11-29T05:04:44.935Z,1.70
2017-11-29T05:07:13.160Z,1.90
2017-11-29T05:09:40.667Z,1.80
2017-11-29T05:12:08.087Z,1.90
2017-11-29T05:14:35.511Z,2.00
2017-11-29T05:17:03.711Z,2.00
2017-11-29T05:19:31.132Z,2.00
2017-11-29T05:21:59.319Z,2.00
2017-11-29T05:24:27.535Z,2.00
2017-11-29T05:26:54.950Z,2.00
2017-11-29T05:29:23.155Z,1.90
2017-11-29T05:31:50.639Z,1.90
2017-11-29T05:34:18.099Z,1.80
2017-11-29T05:36:45.524Z,1.80
2017-11-29T05:39:13.730Z,1.60
2017-11-29T05:41:41.183Z,1.60
2017-11-29T05:44:08.607Z,1.50
2017-11-29T05:46:36.023Z,1.50
2017-11-29T05:49:03.439Z,1.40
2017-11-29T05:51:31.631Z,1.30
2017-11-29T05:53:59.503Z,1.30
2017-11-29T05:56:27.688Z,1.30
2017-11-29T05:58:55.167Z,1.20
2017-11-29T06:01:22.614Z,1.20
2017-11-29T06:03:50.806Z,1.20
2017-11-29T06:06:18.268Z,1.20
2017-11-29T06:08:45.687Z,1.20
2017-11-29T06:11:13.909Z,1.20
2017-11-29T06:13:41.322Z,1.20
2017-11-29T06:16:09.506Z,1.20
2017-11-29T06:18:37.727Z,1.20
2017-11-29T06:21:05.169Z,1.20
2017-11-29T06:23:32.603Z,1.10
2017-11-29T06:26:00.797Z,1.20
2017-11-29T06:28:28.283Z,1.20
2017-11-29T06:30:55.706Z,1.20
2017-11-29T06:33:23.934Z,1.30
2017-11-29T06:35:51.346Z,1.30
2017-11-29T06:38:19.528Z,1.40
2017-11-29T06:40:47.715Z,1.40
2017-11-29T06:43:15.148Z,1.30
2017-11-29T06:45:43.338Z,1.40
2017-11-29T06:48:11.523Z,1.40
2017-11-29T06:50:39.721Z,1.40
2017-11-29T06:53:07.131Z,1.40
2017-11-29T06:55:34.555Z,1.40
2017-11-29T06:58:02.005Z,1.40
2017-11-29T07:00:29.475Z,1.40
2017-11-29T07:02:56.902Z,1.40
2017-11-29T07:05:25.120Z,1.40
2017-11-29T07:07:52.545Z,1.30
2017-11-29T07:10:20.858Z,1.20
2017-11-29T07:12:48.287Z,1.20
2017-11-29T07:15:16.503Z,1.20
2017-11-29T07:17:43.935Z,1.10
2017-11-29T07:20:11.347Z,1.10
2017-11-29T07:22:38.879Z,1.10
2017-11-29T07:25:06.307Z,1.10
2017-11-29T07:27:34.504Z,1.20
2017-11-29T07:30:01.927Z,1.20
2017-11-29T07:32:29.447Z,1.30
2017-11-29T07:34:56.858Z,1.30
2017-11-29T07:37:25.083Z,1.40
2017-11-29T07:39:52.503Z,1.40
2017-11-29T07:42:20.723Z,1.50
2017-11-29T07:44:48.196Z,1.50
2017-11-29T07:47:15.617Z,1.50
2017-11-29T07:49:43.819Z,1.60
2017-11-29T07:52:11.281Z,1.60
2017-11-29T07:54:38.751Z,1.60
2017-11-29T07:57:06.207Z,1.60
2017-11-29T07:59:33.668Z,1.60
2017-11-29T08:02:01.087Z,1.70
2017-11-29T08:04:29.328Z,1.80
2017-11-29T08:06:56.753Z,1.80
2017-11-29T08:09:24.186Z,1.90
2017-11-29T08:11:52.375Z,2.00
2017-11-29T08:14:19.835Z,2.00
2017-11-29T08:16:48.028Z,2.10
2017-11-29T08:19:15.508Z,2.10
2017-11-29T08:21:42.931Z,2.20
2017-11-29T08:24:11.152Z,2.40
2017-11-29T08:26:38.647Z,2.50
2017-11-29T08:29:06.179Z,2.60
2017-11-29T08:31:33.617Z,2.70
2017-11-29T08:34:01.031Z,2.80
2017-11-29T08:36:29.959Z,2.90
2017-11-29T08:38:57.391Z,2.90
2017-11-29T08:41:26.477Z,3.00
2017-11-29T08:43:53.899Z,3.00
2017-11-29T08:46:21.319Z,3.00
2017-11-29T08:48:49.636Z,3.10
2017-11-29T08:51:17.199Z,3.00
2017-11-29T08:53:44.611Z,3.10
2017-11-29T08:56:12.027Z,3.10
2017-11-29T08:58:39.487Z,3.10
2017-11-29T09:01:06.915Z,3.20
2017-11-29T09:03:35.131Z,3.20
2017-11-29T09:06:02.555Z,3.10
2017-11-29T09:08:30.814Z,3.30
2017-11-29T09:10:58.257Z,3.30
2017-11-29T09:13:25.794Z,3.30
2017-11-29T09:15:53.228Z,3.30
2017-11-29T09:18:20.646Z,3.30
2017-11-29T09:20:48.192Z,3.40
2017-11-29T09:23:15.612Z,3.50
2017-11-29T09:25:43.035Z,3.60
2017-11-29T09:28:10.456Z,3.60
2017-11-29T09:30:37.888Z,3.60
2017-11-29T09:33:06.074Z,3.80
2017-11-29T09:35:33.581Z,3.80
2017-11-29T09:38:01.023Z,3.80
2017-11-29T09:40:28.444Z,3.80
2017-11-29T09:42:56.635Z,4.00
2017-11-29T09:45:24.067Z,3.90
2017-11-29T09:47:51.497Z,3.90
2017-11-29T09:50:19.042Z,4.10
2017-11-29T09:52:46.447Z,4.20
2017-11-29T09:55:13.872Z,4.20
2017-11-29T09:57:41.318Z,4.30
2017-11-29T10:00:09.339Z,4.40
2017-11-29T10:02:36.773Z,4.40
2017-11-29T10:05:04.199Z,4.50
2017-11-29T10:07:31.618Z,4.50
2017-11-29T10:09:59.052Z,4.50
2017-11-29T10:12:26.480Z,4.50
2017-11-29T10:14:53.968Z,4.60
2017-11-29T10:17:21.417Z,4.50
2017-11-29T10:19:49.399Z,4.50
2017-11-29T10:22:16.816Z,4.40
2017-11-29T10:24:45.130Z,4.40
2017-11-29T10:27:12.592Z,4.40
2017-11-29T10:29:40.074Z,4.50
2017-11-29T10:32:07.555Z,4.50
2017-11-29T10:34:34.983Z,4.50
2017-11-29T10:37:02.424Z,4.50
2017-11-29T10:39:30.606Z,4.60
2017-11-29T10:41:58.076Z,4.60
2017-11-29T10:44:25.537Z,4.50
2017-11-29T10:46:52.951Z,4.50
2017-11-29T10:49:20.379Z,4.50
2017-11-29T10:51:47.807Z,4.60
2017-11-29T10:54:15.383Z,4.50
2017-11-29T10:56:42.783Z,4.60
2017-11-29T10:59:10.226Z,4.60
2017-11-29T11:01:37.651Z,4.60
2017-11-29T11:04:05.099Z,4.60
2017-11-29T11:06:33.279Z,4.50
2017-11-29T11:09:01.500Z,4.50
2017-11-29T11:11:28.947Z,4.50
2017-11-29T11:13:56.424Z,4.60
2017-11-29T11:16:23.850Z,4.60
2017-11-29T11:18:51.377Z,4.60
2017-11-29T11:21:18.812Z,4.50
2017-11-29T11:23:46.223Z,4.50
2017-11-29T11:26:14.425Z,4.60
2017-11-29T11:28:41.859Z,4.60
2017-11-29T11:31:10.075Z,4.70
2017-11-29T11:33:37.504Z,4.70
2017-11-29T11:36:05.808Z,4.80
2017-11-29T11:38:33.214Z,4.80
2017-11-29T11:41:00.654Z,4.90
2017-11-29T11:43:28.095Z,5.10
2017-11-29T11:45:55.549Z,5.20
2017-11-29T11:48:23.028Z,5.20
2017-11-29T11:50:50.455Z,5.30
2017-11-29T11:53:17.899Z,5.30
2017-11-29T11:55:45.356Z,5.20
2017-11-29T11:58:14.270Z,5.20
2017-11-29T12:00:41.727Z,5.20
2017-11-29T12:03:09.914Z,5.40
2017-11-29T12:05:37.334Z,5.40
2017-11-29T12:08:04.782Z,5.40
2017-11-29T12:10:32.195Z,5.60
2017-11-29T12:12:59.623Z,5.60
2017-11-29T12:15:27.054Z,5.70
2017-11-29T12:17:54.476Z,5.80
2017-11-29T12:20:21.895Z,5.80
2017-11-29T12:22:49.327Z,5.80
2017-11-29T12:25:16.746Z,5.80
2017-11-29T12:27:44.978Z,5.60
2017-11-29T12:30:12.413Z,5.60
2017-11-29T12:32:39.823Z,5.60
2017-11-29T12:35:07.352Z,5.50
2017-11-29T12:37:34.773Z,5.50
2017-11-29T12:40:02.968Z,5.30
2017-11-29T12:42:30.455Z,5.30
2017-11-29T12:44:57.874Z,5.40
2017-11-29T12:47:26.091Z,5.20
2017-11-29T12:50:05.584Z,5.20
2017-11-29T12:52:33.798Z,5.30
2017-11-29T12:55:01.267Z,5.30
2017-11-29T12:57:28.679Z,5.30
2017-11-29T12:59:56.870Z,5.20
2017-11-29T13:02:24.306Z,5.20
2017-11-29T13:04:51.747Z,5.20
2017-11-29T13:07:19.178Z,5.20
2017-11-29T13:09:46.607Z,5.00
2017-11-29T13:12:14.802Z,4.80
2017-11-29T13:14:42.240Z,4.80
2017-11-29T13:17:10.456Z,4.80
2017-11-29T13:19:37.930Z,4.80
2017-11-29T13:22:05.386Z,4.80
2017-11-29T13:24:32.828Z,4.80
2017-11-29T13:27:00.255Z,4.80
2017-11-29T13:29:28.483Z,4.70
2017-11-29T13:31:55.951Z,4.70
2017-11-29T13:34:23.387Z,4.60
2017-11-29T13:36:50.819Z,4.60
2017-11-29T13:39:19.007Z,4.60
2017-11-29T13:41:47.211Z,4.60
2017-11-29T13:44:14.698Z,4.60
2017-11-29T13:46:42.953Z,4.60
2017-11-29T13:49:10.360Z,4.60
2017-11-29T13:51:37.887Z,4.50
2017-11-29T13:54:05.336Z,4.50
2017-11-29T13:56:32.743Z,4.40
2017-11-29T13:59:00.167Z,4.40
2017-11-29T14:01:27.656Z,4.40
2017-11-29T14:03:55.078Z,4.30
2017-11-29T14:06:22.551Z,4.30
2017-11-29T14:08:50.021Z,4.30
2017-11-29T14:11:17.487Z,4.30
2017-11-29T14:13:44.912Z,4.20
2017-11-29T14:16:12.327Z,4.20
2017-11-29T14:18:39.762Z,4.20
2017-11-29T14:21:07.185Z,4.10
2017-11-29T14:23:35.402Z,4.00
2017-11-29T14:26:02.859Z,4.00
2017-11-29T14:28:30.328Z,4.00
2017-11-29T14:30:57.783Z,3.90
2017-11-29T14:33:25.242Z,3.90
2017-11-29T14:35:52.702Z,3.90
2017-11-29T14:38:20.119Z,3.90
2017-11-29T14:40:48.314Z,3.80
2017-11-29T14:43:15.740Z,3.80
2017-11-29T14:45:43.171Z,3.70
2017-11-29T14:48:11.524Z,3.70
2017-11-29T14:50:38.987Z,3.70
2017-11-29T14:53:06.403Z,3.60
2017-11-29T14:55:33.832Z,3.50
2017-11-29T14:58:01.283Z,3.50
2017-11-29T15:00:28.764Z,3.40
2017-11-29T15:02:56.207Z,3.30
2017-11-29T15:05:23.671Z,3.20
2017-11-29T15:07:51.090Z,3.10
2017-11-29T15:10:19.309Z,2.90
2017-11-29T15:12:46.727Z,2.90
2017-11-29T15:15:14.928Z,2.80
2017-11-29T15:17:43.948Z,2.80
2017-11-29T15:20:11.403Z,2.80
2017-11-29T15:22:38.905Z,2.70
2017-11-29T15:25:06.331Z,2.60
2017-11-29T15:27:33.750Z,2.60
2017-11-29T15:30:01.963Z,2.40
2017-11-29T15:32:29.417Z,2.40
2017-11-29T15:34:56.891Z,2.30
2017-11-29T15:37:24.350Z,2.20
2017-11-29T15:39:51.812Z,2.20
2017-11-29T15:42:19.282Z,2.10
2017-11-29T15:44:46.749Z,2.10
2017-11-29T15:47:14.204Z,2.00
2017-11-29T15:49:41.627Z,2.00
2017-11-29T15:52:09.116Z,2.00
2017-11-29T15:54:36.547Z,1.90
2017-11-29T15:57:04.764Z,1.80
2017-11-29T15:59:32.229Z,1.80
2017-11-29T16:01:59.695Z,1.70
2017-11-29T16:04:27.129Z,1.70
2017-11-29T16:06:54.602Z,1.60
2017-11-29T16:09:22.040Z,1.60
2017-11-29T16:11:49.537Z,1.50
2017-11-29T16:14:16.971Z,1.50
2017-11-29T16:16:44.397Z,1.50
2017-11-29T16:19:11.813Z,1.40
2017-11-29T16:21:39.252Z,1.40
2017-11-29T16:24:06.737Z,1.30
2017-11-29T16:26:34.164Z,1.30
2017-11-29T16:29:01.600Z,1.30
2017-11-29T16:31:29.139Z,1.30
2017-11-29T16:33:56.553Z,1.20
2017-11-29T16:36:23.978Z,1.20
2017-11-29T16:38:51.403Z,1.10
2017-11-29T16:41:18.831Z,1.10
2017-11-29T16:43:46.246Z,1.10
2017-11-29T16:46:13.820Z,1.00
2017-11-29T16:48:41.246Z,0.90
2017-11-29T16:51:08.674Z,0.90
2017-11-29T16:53:36.171Z,0.80
2017-11-29T16:56:03.603Z,0.90
2017-11-29T16:58:31.043Z,0.80
2017-11-29T17:00:59.226Z,0.80
2017-11-29T17:03:28.252Z,0.80
2017-11-29T17:05:55.676Z,0.70
2017-11-29T17:08:23.879Z,0.70
2017-11-29T17:10:51.311Z,0.70
2017-11-29T17:13:18.832Z,0.70
2017-11-29T17:15:46.288Z,0.70
2017-11-29T17:18:13.719Z,0.60
2017-11-29T17:20:41.151Z,0.70
2017-11-29T17:23:08.675Z,0.60
2017-11-29T17:25:36.099Z,0.40
2017-11-29T17:28:04.411Z,0.40
2017-11-29T17:30:31.835Z,0.40
2017-11-29T17:33:00.028Z,0.40
2017-11-29T17:35:27.460Z,0.40
2017-11-29T17:37:54.982Z,0.50
2017-11-29T17:40:22.438Z,0.40
2017-11-29T17:42:49.897Z,0.30
2017-11-29T17:45:18.135Z,0.30
2017-11-29T17:47:46.339Z,0.30
2017-11-29T17:50:13.764Z,0.30
2017-11-29T17:52:41.955Z,0.40
2017-11-29T17:55:10.167Z,0.30
2017-11-29T17:57:37.586Z,0.30
2017-11-29T18:00:05.867Z,0.30
2017-11-29T18:02:33.327Z,0.30
2017-11-29T18:05:01.523Z,0.20
2017-11-29T18:07:28.955Z,0.20
2017-11-29T18:09:56.367Z,0.30
2017-11-29T18:12:23.841Z,0.30
2017-11-29T18:14:51.264Z,0.20
2017-11-29T18:17:19.487Z,0.20
2017-11-29T18:19:46.916Z,0.10
2017-11-29T18:22:14.379Z,0.10
2017-11-29T18:24:41.783Z,0.10
2017-11-29T18:27:09.219Z,0.10
2017-11-29T18:29:36.646Z,0.10
2017-11-29T18:32:04.126Z,0.00
2017-11-29T18:34:31.533Z,0.00
2017-11-29T18:36:58.971Z,0.00
2017-11-29T18:39:26.396Z,0.10
2017-11-29T18:41:53.820Z,0.10
2017-11-29T18:44:21.251Z,0.10
2017-11-29T18:46:48.679Z,0.10
2017-11-29T18:49:16.115Z,0.10
2017-11-29T18:51:44.324Z,0.00
2017-11-29T18:54:11.741Z,0.00
2017-11-29T18:56:39.271Z,0.00
2017-11-29T18:59:06.690Z,0.00
2017-11-29T19:01:34.171Z,-0.10
2017-11-29T19:04:01.587Z,-0.10
2017-11-29T19:06:29.094Z,-0.10
2017-11-29T19:08:56.571Z,0.00
2017-11-29T19:11:24.008Z,-0.10
2017-11-29T19:13:51.481Z,-0.10
2017-11-29T19:16:18.900Z,-0.10
2017-11-29T19:18:47.096Z,-0.10
2017-11-29T19:21:15.321Z,-0.10
2017-11-29T19:23:42.783Z,-0.10
2017-11-29T19:26:10.321Z,-0.10
2017-11-29T19:28:37.757Z,-0.10
2017-11-29T19:31:05.992Z,0.00
2017-11-29T19:33:33.444Z,0.00
2017-11-29T19:36:00.875Z,0.10
2017-11-29T19:38:28.446Z,0.10
2017-11-29T19:40:55.928Z,0.20
2017-11-29T19:43:23.373Z,0.30
2017-11-29T19:45:50.802Z,0.40
2017-11-29T19:48:19.066Z,0.40
2017-11-29T19:50:46.467Z,0.30
2017-11-29T19:53:13.890Z,0.40
2017-11-29T19:55:42.096Z,0.40
2017-11-29T19:58:09.523Z,0.40
2017-11-29T20:00:37.023Z,0.40
2017-11-29T20:03:05.215Z,0.30
2017-11-29T20:05:32.640Z,0.20
2017-11-29T20:08:00.863Z,0.10
2017-11-29T20:10:28.324Z,0.10
2017-11-29T20:12:55.779Z,0.00
2017-11-29T20:15:23.252Z,0.00
2017-11-29T20:17:50.699Z,-0.10
2017-11-29T20:20:18.122Z,-0.10
2017-11-29T20:22:46.352Z,-0.20
2017-11-29T20:25:13.818Z,-0.20
2017-11-29T20:27:41.234Z,-0.20
2017-11-29T20:30:09.422Z,-0.30
2017-11-29T20:32:36.862Z,-0.30
2017-11-29T20:35:05.071Z,-0.30
2017-11-29T20:37:32.494Z,-0.30
2017-11-29T20:40:00.008Z,-0.30
2017-11-29T20:42:27.466Z,-0.40
2017-11-29T20:44:54.996Z,-0.40
2017-11-29T20:47:22.521Z,-0.30
2017-11-29T20:49:50.060Z,-0.30
2017-11-29T20:52:29.323Z,-0.30
2017-11-29T20:54:56.880Z,-0.40
2017-11-29T20:57:24.311Z,-0.30
2017-11-29T20:59:51.795Z,-0.30
2017-11-29T21:02:19.260Z,-0.30
2017-11-29T21:04:46.785Z,-0.30
2017-11-29T21:07:14.207Z,-0.30
2017-11-29T21:09:41.676Z,-0.30
2017-11-29T21:12:09.103Z,-0.40
2017-11-29T21:14:36.604Z,-0.40
2017-11-29T21:17:04.807Z,-0.30
2017-11-29T21:19:32.290Z,-0.30
2017-11-29T21:21:59.719Z,-0.30
2017-11-29T21:24:27.231Z,-0.30
2017-11-29T21:26:54.667Z,-0.30
2017-11-29T21:29:22.245Z,-0.30
2017-11-29T21:31:49.688Z,-0.30
2017-11-29T21:34:17.155Z,-0.40
2017-11-29T21:36:44.703Z,-0.40
2017-11-29T21:39:12.131Z,-0.40
2017-11-29T21:41:40.454Z,-0.60
2017-11-29T21:44:07.928Z,-0.70
2017-11-29T21:46:35.470Z,-0.60
2017-11-29T21:49:02.892Z,-0.50
2017-11-29T21:51:30.351Z,-0.50
2017-11-29T21:53:57.793Z,-0.50
2017-11-29T21:56:25.239Z,-0.50
2017-11-29T21:58:52.683Z,-0.40
2017-11-29T22:01:20.102Z,-0.40
2017-11-29T22:03:48.416Z,-0.30
2017-11-29T22:06:15.911Z,-0.40
2017-11-29T22:08:43.355Z,-0.40
2017-11-29T22:11:10.795Z,-0.30
2017-11-29T22:13:38.227Z,-0.20
2017-11-29T22:16:06.449Z,-0.20
2017-11-29T22:18:33.920Z,-0.20
2017-11-29T22:21:01.408Z,-0.20
2017-11-29T22:23:28.835Z,-0.10
2017-11-29T22:25:56.313Z,0.00
2017-11-29T22:28:23.760Z,0.00
2017-11-29T22:30:51.221Z,0.10
2017-11-29T22:33:18.659Z,0.10
2017-11-29T22:35:46.084Z,0.20
2017-11-29T22:38:13.642Z,0.20
2017-11-29T22:40:41.834Z,0.20
2017-11-29T22:43:10.037Z,0.30
2017-11-29T22:45:37.456Z,0.30
2017-11-29T22:48:04.932Z,0.30
2017-11-29T22:50:33.167Z,0.20
2017-11-29T22:53:00.723Z,0.20
2017-11-29T22:55:28.175Z,0.20
2017-11-29T22:57:55.647Z,0.00
2017-11-29T23:00:28.032Z,0.00
2017-11-29T23:02:55.461Z,0.10
2017-11-29T23:05:22.947Z,0.00
2017-11-29T23:07:50.383Z,0.00
2017-11-29T23:10:17.956Z,0.10
2017-11-29T23:12:45.378Z,0.10
2017-11-29T23:15:12.790Z,0.10
2017-11-29T23:17:40.247Z,-0.10
2017-11-29T23:20:07.716Z,-0.10
2017-11-29T23:22:35.690Z,-0.10
2017-11-29T23:25:03.154Z,-0.10
2017-11-29T23:27:30.586Z,-0.10
2017-11-29T23:29:58.165Z,-0.10
2017-11-29T23:32:25.635Z,-0.20
2017-11-29T23:34:53.106Z,-0.30
2017-11-29T23:37:20.530Z,-0.40
2017-11-29T23:39:47.956Z,-0.30
2017-11-29T23:42:15.396Z,-0.30
2017-11-29T23:44:42.838Z,-0.30
2017-11-29T23:47:10.304Z,-0.30
2017-11-29T23:49:37.749Z,-0.30
2017-11-29T23:52:05.226Z,-0.30
2017-11-29T23:54:32.674Z,-0.40
2017-11-29T23:57:00.111Z,-0.30
2017-11-29T23:59:28.319Z,-0.30
